createdAt,value
2023-01-27T00:02:12.854Z,6.17
2023-01-27T00:04:39.740Z,6.53
2023-01-27T00:07:13.415Z,6.83
2023-01-27T00:09:41.950Z,6.80
2023-01-27T00:12:44.542Z,6.33
2023-01-27T00:15:12.991Z,6.40
2023-01-27T00:17:46.506Z,5.97
2023-01-27T00:20:13.651Z,6.20
2023-01-27T00:23:06.497Z,6.20
2023-01-27T00:25:33.267Z,6.17
2023-01-27T00:28:06.505Z,5.93
2023-01-27T00:30:33.242Z,6.27
2023-01-27T00:33:25.514Z,5.67
2023-01-27T00:36:08.502Z,6.57
2023-01-27T00:38:42.032Z,6.70
2023-01-27T00:41:27.479Z,7.73
2023-01-27T00:43:54.732Z,8.87
2023-01-27T00:46:31.531Z,9.13
2023-01-27T00:49:04.604Z,8.97
2023-01-27T00:51:31.322Z,9.57
2023-01-27T00:54:05.597Z,8.40
2023-01-27T00:56:45.543Z,8.50
2023-01-27T00:59:18.539Z,8.10
2023-01-27T01:01:45.165Z,7.97
2023-01-27T01:04:18.579Z,8.60
2023-01-27T01:06:51.486Z,7.77
2023-01-27T01:09:18.147Z,9.03
2023-01-27T01:11:51.537Z,8.77
2023-01-27T01:14:18.208Z,8.77
2023-01-27T01:16:51.544Z,8.50
2023-01-27T01:19:18.201Z,8.67
2023-01-27T01:21:51.586Z,8.97
2023-01-27T01:24:18.359Z,8.43
2023-01-27T01:26:51.531Z,9.37
2023-01-27T01:29:18.373Z,9.40
2023-01-27T01:31:51.575Z,9.80
2023-01-27T01:34:24.550Z,10.23
2023-01-27T01:36:51.299Z,10.63
2023-01-27T01:39:24.535Z,10.37
2023-01-27T01:41:57.562Z,11.00
2023-01-27T01:44:33.518Z,10.30
2023-01-27T01:47:00.392Z,10.97
2023-01-27T01:49:39.537Z,10.70
2023-01-27T01:52:18.280Z,10.97
2023-01-27T01:54:57.555Z,10.93
2023-01-27T01:57:49.577Z,10.93
2023-01-27T02:00:23.500Z,11.20
2023-01-27T02:02:51.627Z,10.80
2023-01-27T02:05:31.500Z,11.50
2023-01-27T02:08:05.356Z,11.03
2023-01-27T02:10:40.667Z,11.70
2023-01-27T02:13:07.452Z,10.77
2023-01-27T02:15:41.614Z,11.93
2023-01-27T02:18:08.667Z,11.27
2023-01-27T02:20:53.610Z,10.17
2023-01-27T02:23:48.330Z,11.43
2023-01-27T02:26:36.550Z,11.13
2023-01-27T02:29:13.569Z,10.60
2023-01-27T02:31:47.662Z,11.03
2023-01-27T02:34:24.618Z,10.93
2023-01-27T02:37:02.561Z,10.67
2023-01-27T02:39:44.654Z,10.97
2023-01-27T02:42:20.543Z,11.23
2023-01-27T02:44:47.334Z,10.20
2023-01-27T02:47:20.659Z,10.67
2023-01-27T02:49:53.550Z,10.20
2023-01-27T02:52:27.605Z,10.37
2023-01-27T02:55:00.635Z,10.67
2023-01-27T02:57:34.018Z,10.00
2023-01-27T03:00:07.926Z,9.60
2023-01-27T03:02:41.655Z,9.80
2023-01-27T03:05:08.746Z,9.50
2023-01-27T03:07:35.375Z,9.47
2023-01-27T03:10:08.586Z,9.60
2023-01-27T03:12:35.311Z,9.80
2023-01-27T03:15:27.674Z,8.80
2023-01-27T03:18:13.482Z,9.47
2023-01-27T03:20:47.740Z,9.07
2023-01-27T03:23:16.465Z,9.07
2023-01-27T03:25:51.569Z,8.63
2023-01-27T03:28:18.427Z,8.37
2023-01-27T03:30:45.389Z,8.60
2023-01-27T03:33:18.594Z,8.43
2023-01-27T03:36:10.585Z,8.63
2023-01-27T03:38:55.874Z,7.97
2023-01-27T03:41:47.598Z,9.03
2023-01-27T03:44:39.626Z,7.70
2023-01-27T03:47:12.612Z,8.10
2023-01-27T03:49:39.346Z,7.53
2023-01-27T03:52:12.594Z,7.43
2023-01-27T03:54:45.530Z,7.77
2023-01-27T03:57:25.630Z,7.87
2023-01-27T03:59:58.667Z,7.53
2023-01-27T04:02:43.777Z,7.43
2023-01-27T04:05:35.672Z,8.23
2023-01-27T04:08:08.570Z,7.67
2023-01-27T04:10:35.417Z,8.27
2023-01-27T04:13:08.603Z,7.80
2023-01-27T04:15:41.696Z,7.00
2023-01-27T04:18:08.323Z,7.70
2023-01-27T04:20:41.628Z,6.90
2023-01-27T04:23:08.359Z,6.77
2023-01-27T04:25:41.811Z,7.03
2023-01-27T04:28:14.573Z,6.93
2023-01-27T04:30:47.677Z,6.27
2023-01-27T04:33:15.908Z,5.97
2023-01-27T04:35:52.607Z,6.23
2023-01-27T04:38:25.669Z,5.93
2023-01-27T04:40:58.614Z,5.30
2023-01-27T04:43:31.616Z,5.60
2023-01-27T04:45:58.324Z,5.73
2023-01-27T04:48:31.628Z,4.97
2023-01-27T04:50:58.268Z,5.00
2023-01-27T04:53:38.592Z,4.90
2023-01-27T04:56:22.755Z,5.10
2023-01-27T04:58:56.643Z,4.80
2023-01-27T05:01:23.281Z,4.83
2023-01-27T05:03:49.925Z,4.90
2023-01-27T05:06:23.671Z,5.13
2023-01-27T05:08:50.981Z,5.10
2023-01-27T05:11:18.586Z,5.23
2023-01-27T05:13:52.612Z,5.20
2023-01-27T05:16:24.613Z,5.10
2023-01-27T05:18:59.589Z,5.13
2023-01-27T05:21:37.601Z,5.33
2023-01-27T05:24:04.547Z,5.33
2023-01-27T05:26:37.635Z,4.97
2023-01-27T05:29:04.299Z,5.03
2023-01-27T05:31:38.711Z,4.97
2023-01-27T05:34:11.618Z,4.60
2023-01-27T05:36:44.650Z,4.90
2023-01-27T05:39:12.001Z,4.47
2023-01-27T05:41:45.655Z,4.70
2023-01-27T05:44:25.636Z,4.47
2023-01-27T05:46:52.299Z,4.63
2023-01-27T05:49:25.632Z,4.53
2023-01-27T05:51:58.671Z,4.73
2023-01-27T05:54:25.313Z,4.30
2023-01-27T05:57:05.665Z,3.77
2023-01-27T05:59:32.257Z,4.30
2023-01-27T06:02:05.722Z,4.37
2023-01-27T06:04:32.422Z,4.80
2023-01-27T06:07:05.642Z,4.43
2023-01-27T06:09:38.613Z,4.13
2023-01-27T06:12:11.568Z,3.93
2023-01-27T06:14:38.151Z,4.00
2023-01-27T06:17:11.648Z,4.00
2023-01-27T06:19:44.631Z,3.97
2023-01-27T06:22:17.726Z,4.80
2023-01-27T06:24:44.347Z,4.20
2023-01-27T06:27:17.637Z,4.63
2023-01-27T06:29:50.731Z,4.73
2023-01-27T06:32:17.428Z,4.13
2023-01-27T06:34:50.647Z,3.97
2023-01-27T06:37:17.432Z,3.97
2023-01-27T06:39:50.633Z,4.03
2023-01-27T06:42:23.688Z,4.60
2023-01-27T06:44:50.275Z,4.53
2023-01-27T06:47:23.622Z,4.03
2023-01-27T06:49:50.192Z,4.73
2023-01-27T06:52:23.630Z,4.50
2023-01-27T06:54:50.287Z,4.67
2023-01-27T06:57:29.645Z,4.50
2023-01-27T06:59:56.587Z,4.60
2023-01-27T07:02:29.770Z,3.93
2023-01-27T07:04:56.552Z,4.73
2023-01-27T07:07:29.629Z,4.47
2023-01-27T07:10:02.704Z,4.50
2023-01-27T07:12:29.723Z,4.37
2023-01-27T07:15:02.714Z,4.10
2023-01-27T07:17:29.461Z,4.50
2023-01-27T07:20:02.733Z,4.30
2023-01-27T07:22:29.574Z,4.10
2023-01-27T07:25:02.667Z,4.10
2023-01-27T07:27:29.674Z,3.77
2023-01-27T07:30:02.670Z,4.17
2023-01-27T07:32:35.694Z,3.90
2023-01-27T07:35:08.768Z,3.67
2023-01-27T07:37:37.365Z,4.27
2023-01-27T07:40:12.045Z,3.33
2023-01-27T07:42:46.712Z,4.27
2023-01-27T07:45:26.698Z,3.60
2023-01-27T07:47:59.676Z,4.13
2023-01-27T07:50:33.739Z,4.57
2023-01-27T07:55:43.706Z,4.37
2023-01-27T07:58:23.698Z,4.70
2023-01-27T08:00:50.362Z,4.53
2023-01-27T08:03:33.822Z,4.97
2023-01-27T08:06:05.903Z,4.80
2023-01-27T08:08:38.663Z,4.37
2023-01-27T08:11:10.795Z,4.33
2023-01-27T08:13:44.746Z,4.67
2023-01-27T08:16:14.603Z,5.03
2023-01-27T08:18:47.666Z,4.30
2023-01-27T08:21:14.311Z,4.83
2023-01-27T08:23:40.966Z,4.93
2023-01-27T08:26:14.705Z,4.37
2023-01-27T08:28:41.579Z,4.53
2023-01-27T08:31:18.738Z,4.57
2023-01-27T08:33:50.642Z,4.33
2023-01-27T08:36:25.684Z,4.30
2023-01-27T08:38:58.656Z,4.80
2023-01-27T08:41:33.708Z,4.63
2023-01-27T08:44:00.463Z,4.20
2023-01-27T08:46:33.706Z,4.53
2023-01-27T08:49:06.696Z,4.87
2023-01-27T08:51:39.722Z,4.83
2023-01-27T08:54:13.738Z,4.70
2023-01-27T08:56:53.696Z,5.03
2023-01-27T08:59:33.752Z,4.80
2023-01-27T09:02:06.749Z,4.87
2023-01-27T09:04:39.719Z,5.30
2023-01-27T09:07:12.720Z,5.67
2023-01-27T09:09:39.362Z,5.00
2023-01-27T09:12:12.764Z,5.33
2023-01-27T09:14:46.691Z,6.10
2023-01-27T09:17:23.743Z,6.23
2023-01-27T09:19:50.598Z,5.33
2023-01-27T09:22:23.706Z,5.60
2023-01-27T09:24:56.679Z,5.80
2023-01-27T09:27:37.239Z,5.67
2023-01-27T09:30:13.044Z,5.23
2023-01-27T09:32:40.660Z,5.70
2023-01-27T09:35:15.284Z,5.37
2023-01-27T09:37:53.714Z,5.50
2023-01-27T09:40:38.755Z,5.60
2023-01-27T09:43:19.550Z,5.07
2023-01-27T09:46:26.740Z,5.20
2023-01-27T09:49:14.541Z,4.70
2023-01-27T09:51:57.798Z,4.57
2023-01-27T09:54:45.928Z,4.70
2023-01-27T09:57:59.769Z,4.80
2023-01-27T10:00:49.013Z,4.37
2023-01-27T10:03:40.761Z,4.47
2023-01-27T10:06:10.581Z,4.27
2023-01-27T10:09:31.789Z,4.70
2023-01-27T10:12:14.613Z,4.67
2023-01-27T10:14:57.715Z,4.60
2023-01-27T10:17:43.986Z,4.57
2023-01-27T10:20:32.751Z,5.17
2023-01-27T10:23:11.505Z,5.43
2023-01-27T10:25:55.725Z,5.00
2023-01-27T10:28:24.424Z,4.67
2023-01-27T10:31:07.791Z,5.60
2023-01-27T10:33:54.045Z,5.40
2023-01-27T10:37:06.762Z,4.73
2023-01-27T10:39:56.698Z,5.17
2023-01-27T10:42:23.207Z,5.20
2023-01-27T10:45:14.693Z,5.10
2023-01-27T10:48:13.792Z,5.00
2023-01-27T10:50:43.228Z,5.13
2023-01-27T10:53:44.845Z,5.20
2023-01-27T10:56:28.793Z,5.00
2023-01-27T10:59:12.705Z,4.90
2023-01-27T11:01:46.777Z,5.23
2023-01-27T11:04:47.741Z,5.50
2023-01-27T11:07:21.624Z,5.30
2023-01-27T11:10:08.825Z,5.30
2023-01-27T11:12:41.577Z,5.10
2023-01-27T11:15:31.699Z,5.30
2023-01-27T11:18:04.589Z,5.60
2023-01-27T11:20:41.771Z,5.63
2023-01-27T11:23:18.593Z,5.50
2023-01-27T11:26:03.756Z,5.20
2023-01-27T11:28:42.835Z,4.90
2023-01-27T11:31:38.950Z,5.53
2023-01-27T11:34:40.131Z,5.40
2023-01-27T11:37:33.777Z,5.27
2023-01-27T11:40:01.351Z,5.10
2023-01-27T11:42:40.755Z,5.20
2023-01-27T11:45:13.577Z,5.03
2023-01-27T11:47:48.775Z,5.00
2023-01-27T11:50:28.574Z,4.33
2023-01-27T11:53:11.720Z,5.07
2023-01-27T11:55:46.096Z,4.90
2023-01-27T11:58:49.805Z,4.80
2023-01-27T12:01:24.105Z,5.17
2023-01-27T12:04:26.813Z,5.50
2023-01-27T12:07:05.814Z,5.23
2023-01-27T12:09:41.813Z,5.00
2023-01-27T12:12:28.792Z,5.20
2023-01-27T12:15:06.885Z,5.20
2023-01-27T12:17:40.347Z,4.80
2023-01-27T12:20:53.813Z,4.63
2023-01-27T12:23:34.749Z,4.40
2023-01-27T12:26:04.811Z,4.90
2023-01-27T12:28:58.739Z,4.67
2023-01-27T12:31:37.864Z,5.27
2023-01-27T12:34:33.826Z,5.33
2023-01-27T12:37:07.796Z,5.00
2023-01-27T12:39:42.072Z,5.93
2023-01-27T12:42:43.779Z,5.60
2023-01-27T12:45:31.751Z,6.77
2023-01-27T12:48:11.729Z,6.47
2023-01-27T12:50:47.741Z,6.20
2023-01-27T12:53:27.082Z,6.20
2023-01-27T12:55:59.884Z,5.87
2023-01-27T12:58:46.798Z,5.37
2023-01-27T13:01:44.878Z,5.93
2023-01-27T13:04:21.960Z,6.00
2023-01-27T13:07:00.760Z,5.40
2023-01-27T13:09:52.801Z,5.10
2023-01-27T13:12:24.038Z,4.93
2023-01-27T13:15:27.865Z,5.07
2023-01-27T13:18:03.811Z,4.87
2023-01-27T13:20:57.848Z,5.20
2023-01-27T13:23:32.621Z,4.50
2023-01-27T13:26:11.836Z,4.60
2023-01-27T13:29:00.115Z,4.77
2023-01-27T13:31:45.976Z,4.50
2023-01-27T13:34:38.744Z,3.93
2023-01-27T13:37:30.864Z,4.10
2023-01-27T13:40:29.854Z,4.13
2023-01-27T13:43:30.913Z,3.80
2023-01-27T13:46:17.358Z,3.80
2023-01-27T13:48:55.837Z,3.47
2023-01-27T13:51:25.440Z,3.67
2023-01-27T13:54:05.814Z,4.47
2023-01-27T13:57:12.806Z,4.83
2023-01-27T14:00:14.226Z,5.33
2023-01-27T14:03:24.890Z,5.10
2023-01-27T14:06:11.840Z,4.97
2023-01-27T14:08:57.836Z,4.63
2023-01-27T14:11:35.316Z,4.90
2023-01-27T14:14:26.812Z,4.53
2023-01-27T14:17:12.177Z,4.60
2023-01-27T14:20:03.799Z,4.07
2023-01-27T14:23:05.915Z,4.50
2023-01-27T14:26:06.920Z,4.50
2023-01-27T14:29:04.892Z,4.60
2023-01-27T14:31:44.359Z,4.83
2023-01-27T14:34:35.803Z,4.03
2023-01-27T14:37:24.876Z,4.60
2023-01-27T14:40:19.803Z,4.43
2023-01-27T14:43:13.641Z,4.63
2023-01-27T14:45:53.835Z,5.53
2023-01-27T14:48:55.886Z,5.23
2023-01-27T14:51:37.872Z,5.47
2023-01-27T14:54:44.831Z,5.13
2023-01-27T14:57:57.922Z,4.80
2023-01-27T15:00:51.951Z,5.27
2023-01-27T15:03:37.464Z,4.73
2023-01-27T15:06:28.875Z,5.00
2023-01-27T15:09:07.956Z,4.67
2023-01-27T15:11:56.897Z,4.50
2023-01-27T15:15:03.892Z,4.23
2023-01-27T15:17:55.892Z,5.03
2023-01-27T15:20:28.571Z,4.70
2023-01-27T15:23:28.943Z,4.50
2023-01-27T15:26:01.368Z,4.53
2023-01-27T15:28:39.909Z,4.43
2023-01-27T15:31:23.085Z,4.83
2023-01-27T15:34:11.904Z,4.47
2023-01-27T15:36:46.924Z,4.53
2023-01-27T15:39:21.861Z,4.30
2023-01-27T15:42:17.366Z,4.27
2023-01-27T15:45:01.550Z,3.83
2023-01-27T15:47:39.991Z,3.90
2023-01-27T15:50:36.973Z,3.27
2023-01-27T15:53:19.901Z,3.50
2023-01-27T15:56:01.918Z,3.20
2023-01-27T15:58:46.217Z,3.63
2023-01-27T16:01:40.882Z,3.00
2023-01-27T16:04:16.894Z,3.13
2023-01-27T16:07:27.871Z,3.40
2023-01-27T16:09:55.540Z,3.30
2023-01-27T16:12:34.874Z,3.50
2023-01-27T16:15:01.480Z,3.30
2023-01-27T16:17:40.902Z,3.40
2023-01-27T16:20:32.964Z,3.67
2023-01-27T16:23:27.909Z,3.70
2023-01-27T16:26:08.758Z,3.67
2023-01-27T16:28:43.903Z,4.70
2023-01-27T16:31:16.740Z,4.90
2023-01-27T16:33:55.969Z,4.27
2023-01-27T16:36:37.922Z,4.07
2023-01-27T16:39:42.889Z,4.47
2023-01-27T16:42:14.693Z,4.90
2023-01-27T16:44:49.912Z,4.70
2023-01-27T16:47:41.451Z,5.27
2023-01-27T16:50:38.915Z,4.87
2023-01-27T16:53:15.653Z,5.30
2023-01-27T16:56:13.921Z,5.30
2023-01-27T16:58:50.090Z,4.80
2023-01-27T17:01:36.881Z,5.23
2023-01-27T17:04:19.510Z,5.90
2023-01-27T17:06:54.057Z,6.17
2023-01-27T17:09:38.918Z,6.40
2023-01-27T17:12:27.288Z,5.87
2023-01-27T17:15:00.952Z,6.03
2023-01-27T17:17:38.984Z,5.67
2023-01-27T17:20:07.898Z,5.00
2023-01-27T17:23:04.030Z,5.70
2023-01-27T17:25:42.965Z,5.30
2023-01-27T17:28:17.160Z,5.90
2023-01-27T17:30:52.984Z,5.87
2023-01-27T17:33:27.912Z,5.73
2023-01-27T17:36:04.944Z,5.70
2023-01-27T17:38:49.661Z,5.07
2023-01-27T17:41:40.963Z,4.77
2023-01-27T17:44:13.661Z,4.87
2023-01-27T17:46:47.958Z,4.60
2023-01-27T17:49:18.906Z,4.50
2023-01-27T17:51:55.982Z,4.40
2023-01-27T17:54:41.977Z,4.60
2023-01-27T17:57:32.836Z,4.43
2023-01-27T18:00:17.939Z,4.30
2023-01-27T18:03:20.934Z,4.47
2023-01-27T18:05:56.974Z,4.80
2023-01-27T18:08:23.763Z,4.90
2023-01-27T18:10:58.118Z,6.60
2023-01-27T18:13:33.944Z,7.03
2023-01-27T18:16:19.583Z,5.07
2023-01-27T18:18:53.992Z,5.07
2023-01-27T18:21:31.907Z,4.70
2023-01-27T18:24:05.940Z,5.27
2023-01-27T18:26:40.692Z,4.60
2023-01-27T18:29:19.918Z,4.87
2023-01-27T18:31:58.366Z,4.77
2023-01-27T18:34:38.005Z,5.10
2023-01-27T18:37:27.985Z,5.40
2023-01-27T18:40:02.948Z,4.80
2023-01-27T18:42:38.023Z,5.23
2023-01-27T18:45:12.647Z,5.57
2023-01-27T18:47:45.943Z,7.13
2023-01-27T18:50:30.740Z,10.10
2023-01-27T18:53:03.950Z,5.47
2023-01-27T18:55:37.013Z,5.63
2023-01-27T18:58:19.004Z,6.10
2023-01-27T19:00:51.045Z,6.00
2023-01-27T19:03:31.028Z,6.20
2023-01-27T19:05:57.871Z,6.47
2023-01-27T19:08:31.979Z,6.50
2023-01-27T19:10:58.626Z,7.83
2023-01-27T19:13:32.028Z,6.63
2023-01-27T19:15:59.878Z,6.90
2023-01-27T19:18:39.008Z,6.67
2023-01-27T19:21:12.969Z,6.53
2023-01-27T19:23:48.353Z,6.53
2023-01-27T19:26:24.959Z,7.07
2023-01-27T19:28:55.050Z,7.23
2023-01-27T19:31:28.970Z,7.20
2023-01-27T19:34:02.021Z,6.87
2023-01-27T19:36:41.110Z,7.40
2023-01-27T19:39:13.977Z,7.20
2023-01-27T19:41:47.968Z,7.10
2023-01-27T19:44:15.565Z,7.50
2023-01-27T19:46:48.976Z,7.57
2023-01-27T19:49:19.796Z,7.87
2023-01-27T19:51:52.945Z,6.97
2023-01-27T19:54:25.958Z,7.57
2023-01-27T19:56:59.233Z,7.67
2023-01-27T19:59:32.547Z,7.80
2023-01-27T20:02:06.132Z,7.57
2023-01-27T20:04:33.413Z,7.83
2023-01-27T20:07:06.973Z,7.17
2023-01-27T20:09:40.067Z,7.93
2023-01-27T20:12:15.060Z,7.47
2023-01-27T20:14:48.987Z,7.53
2023-01-27T20:17:15.660Z,6.70
2023-01-27T20:19:49.032Z,6.53
2023-01-27T20:22:15.669Z,5.97
2023-01-27T20:24:48.994Z,11.83
2023-01-27T20:27:15.695Z,5.80
2023-01-27T20:29:49.063Z,4.90
2023-01-27T20:32:16.131Z,4.93
2023-01-27T20:34:48.997Z,5.00
2023-01-27T20:37:15.982Z,4.67
2023-01-27T20:39:49.034Z,5.00
2023-01-27T20:42:22.110Z,5.83
2023-01-27T20:44:54.924Z,5.17
2023-01-27T20:47:28.009Z,6.13
2023-01-27T20:49:54.649Z,6.03
2023-01-27T20:52:21.502Z,5.77
2023-01-27T20:54:55.032Z,6.37
2023-01-27T20:57:30.076Z,5.70
2023-01-27T21:00:11.051Z,6.33
2023-01-27T21:02:37.836Z,5.50
2023-01-27T21:05:11.185Z,5.10
2023-01-27T21:07:38.087Z,5.97
2023-01-27T21:10:11.989Z,5.60
2023-01-27T21:12:38.935Z,8.07
2023-01-27T21:15:16.454Z,8.63
2023-01-27T21:17:50.026Z,8.20
2023-01-27T21:20:17.044Z,8.07
2023-01-27T21:22:52.031Z,10.50
2023-01-27T21:25:19.390Z,9.63
2023-01-27T21:27:55.004Z,7.27
2023-01-27T21:30:21.658Z,7.23
2023-01-27T21:32:55.001Z,7.00
2023-01-27T21:35:28.069Z,7.10
2023-01-27T21:38:01.015Z,6.97
2023-01-27T21:40:34.021Z,7.37
2023-01-27T21:43:26.115Z,7.40
2023-01-27T21:46:00.096Z,6.93
2023-01-27T21:48:33.121Z,7.27
2023-01-27T21:50:59.789Z,8.40
2023-01-27T21:53:33.051Z,8.07
2023-01-27T21:56:07.707Z,8.53
2023-01-27T21:58:48.041Z,7.50
2023-01-27T22:01:14.829Z,6.90
2023-01-27T22:03:48.010Z,6.70
2023-01-27T22:06:15.568Z,7.27
2023-01-27T22:08:48.991Z,7.80
2023-01-27T22:11:15.707Z,9.53
2023-01-27T22:13:42.385Z,9.77
2023-01-27T22:16:21.031Z,9.43
2023-01-27T22:18:47.833Z,10.33
2023-01-27T22:21:21.203Z,12.20
2023-01-27T22:23:48.213Z,11.23
2023-01-27T22:26:22.085Z,10.63
2023-01-27T22:28:48.957Z,10.90
2023-01-27T22:31:22.039Z,11.97
2023-01-27T22:33:48.849Z,11.07
2023-01-27T22:36:22.136Z,11.93
2023-01-27T22:38:55.123Z,10.57
2023-01-27T22:41:28.142Z,14.87
2023-01-27T22:44:01.158Z,11.40
2023-01-27T22:46:34.071Z,9.93
2023-01-27T22:49:07.130Z,11.03
2023-01-27T22:51:33.938Z,10.53
2023-01-27T22:54:07.183Z,9.93
2023-01-27T22:56:33.995Z,10.97
2023-01-27T22:59:15.196Z,9.43
2023-01-27T23:01:42.055Z,8.80
2023-01-27T23:04:18.111Z,9.50
2023-01-27T23:06:44.892Z,9.73
2023-01-27T23:09:19.145Z,10.07
2023-01-27T23:11:46.186Z,8.53
2023-01-27T23:14:19.159Z,8.57
2023-01-27T23:16:46.156Z,7.03
2023-01-27T23:19:12.997Z,7.53
2023-01-27T23:21:46.158Z,7.63
2023-01-27T23:24:14.475Z,7.70
2023-01-27T23:26:48.212Z,7.20
2023-01-27T23:29:24.112Z,6.73
2023-01-27T23:31:59.282Z,6.53
2023-01-27T23:34:26.179Z,6.60
2023-01-27T23:36:59.177Z,6.73
2023-01-27T23:39:25.952Z,6.37
2023-01-27T23:41:59.164Z,6.10
2023-01-27T23:44:25.932Z,6.07
2023-01-27T23:46:59.110Z,6.50
2023-01-27T23:49:25.927Z,7.77
2023-01-27T23:51:59.207Z,8.17
2023-01-27T23:54:25.952Z,7.77
2023-01-27T23:56:52.789Z,9.00
2023-01-27T23:59:26.097Z,9.27
